Terminal Aerodrome Forecast
Issued by NWS

Current Version | Previous Version | Graphics & Text | Print | Product List | Glossary On
Versions: 1 2 3 4 5 6 7 8 9 10 11 12 13 14 15 16 17 18 19 20 21 22 23 24 25 26
000
FTUS41 KILN 292338
TAFLUK
TAF
KLUK 292338Z 3000/3024 02008KT P6SM VCTS SCT040CB BKN080
     FM300100 34006KT P6SM SCT120
     FM300600 34004KT P6SM SCT020
      TEMPO 3008/3012 3SM BR
     FM301300 30006KT P6SM FEW035
     FM302300 VRB03KT P6SM SKC=

USA.gov is the U.S. government's official web portal to all federal, state and local government web resources and services.